createdAt,value
2019-02-02T00:02:23.255Z,21.33
2019-02-02T00:05:12.534Z,20.67
2019-02-02T00:08:00.668Z,23.20
2019-02-02T00:10:49.323Z,21.70
2019-02-02T00:13:37.239Z,22.97
2019-02-02T00:16:25.675Z,21.27
2019-02-02T00:19:13.955Z,22.90
2019-02-02T00:22:02.175Z,24.20
2019-02-02T00:24:50.490Z,24.23
2019-02-02T00:27:41.446Z,23.50
2019-02-02T00:30:27.619Z,25.93
2019-02-02T00:33:15.819Z,25.50
2019-02-02T00:36:04.314Z,23.97
2019-02-02T00:38:52.744Z,22.70
2019-02-02T00:41:40.923Z,25.33
2019-02-02T00:44:28.716Z,26.90
2019-02-02T00:47:18.189Z,29.97
2019-02-02T00:50:06.795Z,24.90
2019-02-02T00:52:55.347Z,24.30
2019-02-02T00:55:44.163Z,25.20
2019-02-02T00:58:32.335Z,25.10
2019-02-02T01:01:21.047Z,23.40
2019-02-02T01:04:08.936Z,24.50
2019-02-02T01:06:57.214Z,24.10
2019-02-02T01:09:45.411Z,26.27
2019-02-02T01:12:33.722Z,24.90
2019-02-02T01:15:22.119Z,26.30
2019-02-02T01:18:10.011Z,25.10
2019-02-02T01:20:58.551Z,26.80
2019-02-02T01:23:47.373Z,27.97
2019-02-02T01:26:35.788Z,25.73
2019-02-02T01:29:23.486Z,27.83
2019-02-02T01:32:14.012Z,26.27
2019-02-02T01:35:01.928Z,24.90
2019-02-02T01:37:50.033Z,27.47
2019-02-02T01:40:37.822Z,27.10
2019-02-02T01:43:26.442Z,23.67
2019-02-02T01:46:14.151Z,27.40
2019-02-02T01:49:02.315Z,25.97
2019-02-02T01:51:50.486Z,25.30
2019-02-02T01:54:38.672Z,26.77
2019-02-02T01:57:26.620Z,24.63
2019-02-02T02:00:23.438Z,25.83
2019-02-02T02:03:11.446Z,25.07
2019-02-02T02:05:59.715Z,24.53
2019-02-02T02:08:47.379Z,25.77
2019-02-02T02:11:36.054Z,25.80
2019-02-02T02:14:23.543Z,25.67
2019-02-02T02:17:12.111Z,24.73
2019-02-02T02:20:00.098Z,25.83
2019-02-02T02:22:48.823Z,26.00
2019-02-02T02:25:36.626Z,24.50
2019-02-02T02:28:28.337Z,26.43
2019-02-02T02:31:15.034Z,25.13
2019-02-02T02:34:03.466Z,27.50
2019-02-02T02:36:51.988Z,26.07
2019-02-02T02:39:40.471Z,27.03
2019-02-02T02:42:29.329Z,26.33
2019-02-02T02:45:17.676Z,27.30
2019-02-02T02:48:06.432Z,26.03
2019-02-02T02:50:54.962Z,26.47
2019-02-02T02:53:42.726Z,26.00
2019-02-02T02:56:30.848Z,26.30
2019-02-02T02:59:18.935Z,27.03
2019-02-02T03:02:07.254Z,25.07
2019-02-02T03:04:55.203Z,24.37
2019-02-02T03:07:43.555Z,25.40
2019-02-02T03:10:31.202Z,24.60
2019-02-02T03:13:19.275Z,23.93
2019-02-02T03:16:07.802Z,26.00
2019-02-02T03:18:55.306Z,25.90
2019-02-02T03:21:43.856Z,25.30
2019-02-02T03:24:32.839Z,26.50
2019-02-02T03:27:21.523Z,25.10
2019-02-02T03:30:11.816Z,26.37
2019-02-02T03:33:00.260Z,27.47
2019-02-02T03:35:48.659Z,23.20
2019-02-02T03:38:36.709Z,27.80
2019-02-02T03:41:24.635Z,27.03
2019-02-02T03:44:12.407Z,26.80
2019-02-02T03:47:00.852Z,26.17
2019-02-02T03:49:49.221Z,28.67
2019-02-02T03:52:36.802Z,26.30
2019-02-02T03:55:24.787Z,26.77
2019-02-02T03:58:13.315Z,25.57
2019-02-02T04:01:01.635Z,25.93
2019-02-02T04:03:49.160Z,24.90
2019-02-02T04:06:37.212Z,25.80
2019-02-02T04:09:25.378Z,27.30
2019-02-02T04:12:14.507Z,26.47
2019-02-02T04:15:02.351Z,27.77
2019-02-02T04:17:50.762Z,27.80
2019-02-02T04:20:39.163Z,28.90
2019-02-02T04:23:27.643Z,26.90
2019-02-02T04:26:15.840Z,27.30
2019-02-02T04:29:04.574Z,25.87
2019-02-02T04:31:53.074Z,26.50
2019-02-02T04:34:41.384Z,26.13
2019-02-02T04:37:29.247Z,26.00
2019-02-02T04:40:16.916Z,27.00
2019-02-02T04:43:05.163Z,26.90
2019-02-02T04:45:52.762Z,27.40
2019-02-02T04:48:41.002Z,26.30
2019-02-02T04:51:28.468Z,27.30
2019-02-02T04:54:16.693Z,27.73
2019-02-02T04:57:04.975Z,26.70
2019-02-02T04:59:53.756Z,27.60
2019-02-02T05:02:41.980Z,28.93
2019-02-02T05:05:30.642Z,27.40
2019-02-02T05:08:18.895Z,26.73
2019-02-02T05:11:06.875Z,27.33
2019-02-02T05:13:55.419Z,27.30
2019-02-02T05:16:43.279Z,26.90
2019-02-02T05:19:31.243Z,26.87
2019-02-02T05:22:19.134Z,42.33
2019-02-02T05:25:08.107Z,27.93
2019-02-02T05:27:55.812Z,26.73
2019-02-02T05:30:44.115Z,29.90
2019-02-02T05:33:32.358Z,28.00
2019-02-02T05:36:20.446Z,27.73
2019-02-02T05:39:09.675Z,27.53
2019-02-02T05:41:57.604Z,28.47
2019-02-02T05:44:45.879Z,30.50
2019-02-02T05:47:34.523Z,31.10
2019-02-02T05:50:23.004Z,29.80
2019-02-02T05:53:10.515Z,29.10
2019-02-02T05:55:59.043Z,30.67
2019-02-02T05:58:47.449Z,31.57
2019-02-02T06:01:35.579Z,28.90
2019-02-02T06:04:23.354Z,30.33
2019-02-02T06:07:11.319Z,29.70
2019-02-02T06:09:59.519Z,30.47
2019-02-02T06:12:47.663Z,33.90
2019-02-02T06:15:36.558Z,32.80
2019-02-02T06:18:24.294Z,31.13
2019-02-02T06:21:12.451Z,33.90
2019-02-02T06:24:00.947Z,31.77
2019-02-02T06:26:49.228Z,31.60
2019-02-02T06:29:37.154Z,35.83
2019-02-02T06:32:25.564Z,31.43
2019-02-02T06:35:14.538Z,32.70
2019-02-02T06:38:03.239Z,34.20
2019-02-02T06:40:50.822Z,35.57
2019-02-02T06:43:38.834Z,32.43
2019-02-02T06:46:26.781Z,34.30
2019-02-02T06:49:15.479Z,30.43
2019-02-02T06:52:03.329Z,33.80
2019-02-02T06:54:51.335Z,32.80
2019-02-02T06:57:38.863Z,31.07
2019-02-02T07:00:27.459Z,31.77
2019-02-02T07:03:15.099Z,35.80
2019-02-02T07:06:03.451Z,33.97
2019-02-02T07:08:51.403Z,36.30
2019-02-02T07:11:39.498Z,33.30
2019-02-02T07:14:27.815Z,33.20
2019-02-02T07:17:17.783Z,35.87
2019-02-02T07:20:07.876Z,36.43
2019-02-02T07:22:56.326Z,34.30
2019-02-02T07:25:44.370Z,34.33
2019-02-02T07:28:32.799Z,36.50
2019-02-02T07:31:21.238Z,35.50
2019-02-02T07:34:09.289Z,35.53
2019-02-02T07:36:57.282Z,34.37
2019-02-02T07:39:45.789Z,33.80
2019-02-02T07:42:34.036Z,35.27
2019-02-02T07:45:27.851Z,37.80
2019-02-02T07:48:15.886Z,37.50
2019-02-02T07:51:04.505Z,35.90
2019-02-02T07:53:53.059Z,36.70
2019-02-02T07:56:41.907Z,35.10
2019-02-02T07:59:29.392Z,36.60
2019-02-02T08:02:17.579Z,36.33
2019-02-02T08:05:05.868Z,36.33
2019-02-02T08:07:53.639Z,36.10
2019-02-02T08:10:42.266Z,36.10
2019-02-02T08:13:30.459Z,37.03
2019-02-02T08:16:18.741Z,37.00
2019-02-02T08:19:07.291Z,36.83
2019-02-02T08:21:55.614Z,36.27
2019-02-02T08:24:44.304Z,36.07
2019-02-02T08:27:32.195Z,36.10
2019-02-02T08:30:25.474Z,37.83
2019-02-02T08:33:14.181Z,36.63
2019-02-02T08:36:04.148Z,37.00
2019-02-02T08:38:53.523Z,36.30
2019-02-02T08:41:42.670Z,35.63
2019-02-02T08:44:30.423Z,36.33
2019-02-02T08:47:21.726Z,35.90
2019-02-02T08:50:18.563Z,35.80
2019-02-02T08:53:07.296Z,35.47
2019-02-02T08:55:55.535Z,34.70
2019-02-02T08:58:43.575Z,34.37
2019-02-02T09:01:31.714Z,36.40
2019-02-02T09:04:20.337Z,33.67
2019-02-02T09:07:08.438Z,34.20
2019-02-02T09:09:56.994Z,36.43
2019-02-02T09:12:44.667Z,36.07
2019-02-02T09:15:32.889Z,33.87
2019-02-02T09:18:21.366Z,33.70
2019-02-02T09:21:09.812Z,35.97
2019-02-02T09:23:58.078Z,36.07
2019-02-02T09:26:46.211Z,34.63
2019-02-02T09:29:34.344Z,35.07
2019-02-02T09:32:22.383Z,34.87
2019-02-02T09:35:11.167Z,35.10
2019-02-02T09:37:58.858Z,33.43
2019-02-02T09:40:47.366Z,34.77
2019-02-02T09:43:35.387Z,34.70
2019-02-02T09:46:23.052Z,36.60
2019-02-02T09:49:12.220Z,35.77
2019-02-02T09:52:00.031Z,35.00
2019-02-02T09:54:48.239Z,35.60
2019-02-02T09:57:36.912Z,34.43
2019-02-02T10:00:27.312Z,34.60
2019-02-02T10:03:15.568Z,37.10
2019-02-02T10:06:03.484Z,33.90
2019-02-02T10:08:51.352Z,38.40
2019-02-02T10:11:39.064Z,35.10
2019-02-02T10:14:27.463Z,35.73
2019-02-02T10:17:15.275Z,36.30
2019-02-02T10:20:04.858Z,33.07
2019-02-02T10:22:53.563Z,36.50
2019-02-02T10:25:42.012Z,36.00
2019-02-02T10:28:30.182Z,34.57
2019-02-02T10:31:17.966Z,37.00
2019-02-02T10:34:05.924Z,37.33
2019-02-02T10:36:54.260Z,34.87
2019-02-02T10:39:42.783Z,37.10
2019-02-02T10:42:30.350Z,35.07
2019-02-02T10:45:19.118Z,40.23
2019-02-02T10:48:07.380Z,36.37
2019-02-02T10:50:55.180Z,37.63
2019-02-02T10:53:43.549Z,38.30
2019-02-02T10:56:31.671Z,38.33
2019-02-02T10:59:19.123Z,36.87
2019-02-02T11:02:08.241Z,37.77
2019-02-02T11:04:56.651Z,41.30
2019-02-02T11:07:44.650Z,37.10
2019-02-02T11:10:43.906Z,37.67
2019-02-02T11:13:32.424Z,37.27
2019-02-02T11:16:20.523Z,37.90
2019-02-02T11:19:08.829Z,40.37
2019-02-02T11:21:56.963Z,38.90
2019-02-02T11:24:45.166Z,39.20
2019-02-02T11:27:32.687Z,42.10
2019-02-02T11:30:21.256Z,38.63
2019-02-02T11:33:09.357Z,40.47
2019-02-02T11:35:57.180Z,41.23
2019-02-02T11:38:44.768Z,44.10
2019-02-02T11:41:32.307Z,39.90
2019-02-02T11:44:20.609Z,40.00
2019-02-02T11:47:08.844Z,43.13
2019-02-02T11:49:56.904Z,41.80
2019-02-02T11:52:45.131Z,42.13
2019-02-02T11:55:33.207Z,44.67
2019-02-02T11:58:20.815Z,45.90
2019-02-02T12:01:09.468Z,45.10
2019-02-02T12:03:57.561Z,44.70
2019-02-02T12:06:45.128Z,43.33
2019-02-02T12:09:33.127Z,43.60
2019-02-02T12:12:20.777Z,47.53
2019-02-02T12:15:10.328Z,44.67
2019-02-02T12:17:58.601Z,44.40
2019-02-02T12:20:47.036Z,46.30
2019-02-02T12:23:35.374Z,46.77
2019-02-02T12:26:23.064Z,46.20
2019-02-02T12:29:11.287Z,46.83
2019-02-02T12:31:59.454Z,46.77
2019-02-02T12:34:47.782Z,44.83
2019-02-02T12:37:35.716Z,45.97
2019-02-02T12:40:23.788Z,46.50
2019-02-02T12:43:11.812Z,45.37
2019-02-02T12:46:00.441Z,44.60
2019-02-02T12:48:48.283Z,44.13
2019-02-02T12:51:36.747Z,46.20
2019-02-02T12:54:24.703Z,47.07
2019-02-02T12:57:12.795Z,48.03
2019-02-02T13:00:00.789Z,47.27
2019-02-02T13:02:48.780Z,48.67
2019-02-02T13:05:39.015Z,51.93
2019-02-02T13:08:26.172Z,48.07
2019-02-02T13:11:14.496Z,48.77
2019-02-02T13:14:02.605Z,53.80
2019-02-02T13:16:51.160Z,47.97
2019-02-02T13:19:39.409Z,50.97
2019-02-02T13:22:27.276Z,50.30
2019-02-02T13:25:16.877Z,50.17
2019-02-02T13:28:05.548Z,52.57
2019-02-02T13:30:53.348Z,52.57
2019-02-02T13:33:41.423Z,51.00
2019-02-02T13:36:29.772Z,52.07
2019-02-02T13:39:17.772Z,51.30
2019-02-02T13:42:05.955Z,52.33
2019-02-02T13:44:53.505Z,53.30
2019-02-02T13:47:42.115Z,54.47
2019-02-02T13:50:30.435Z,52.70
2019-02-02T13:53:18.991Z,52.53
2019-02-02T13:56:07.439Z,52.43
2019-02-02T13:58:56.064Z,53.77
2019-02-02T14:01:43.747Z,49.83
2019-02-02T14:04:31.308Z,52.67
2019-02-02T14:07:20.150Z,51.30
2019-02-02T14:10:10.644Z,54.23
2019-02-02T14:12:58.863Z,51.47
2019-02-02T14:15:47.373Z,53.30
2019-02-02T14:18:35.470Z,56.67
2019-02-02T14:21:23.896Z,51.60
2019-02-02T14:24:12.528Z,50.27
2019-02-02T14:27:00.494Z,52.90
2019-02-02T14:29:49.156Z,49.37
2019-02-02T14:32:37.688Z,49.40
2019-02-02T14:35:27.388Z,51.30
2019-02-02T14:38:16.020Z,53.43
2019-02-02T14:41:04.744Z,51.97
2019-02-02T14:43:55.648Z,51.80
2019-02-02T14:46:42.840Z,52.07
2019-02-02T14:49:31.067Z,53.63
2019-02-02T14:52:18.712Z,51.93
2019-02-02T14:55:08.195Z,53.97
2019-02-02T14:57:56.569Z,52.37
2019-02-02T15:00:44.755Z,57.87
2019-02-02T15:03:33.236Z,52.20
2019-02-02T15:06:21.553Z,56.90
2019-02-02T15:09:09.996Z,52.63
2019-02-02T15:11:57.964Z,60.47
2019-02-02T15:14:46.768Z,54.83
2019-02-02T15:17:34.897Z,54.10
2019-02-02T15:20:29.061Z,59.20
2019-02-02T15:23:17.223Z,58.10
2019-02-02T15:26:05.109Z,58.63
2019-02-02T15:28:53.060Z,53.40
2019-02-02T15:31:40.617Z,60.50
2019-02-02T15:34:28.599Z,56.53
2019-02-02T15:37:16.179Z,59.27
2019-02-02T15:40:05.494Z,57.43
2019-02-02T15:42:53.895Z,62.37
2019-02-02T15:45:42.404Z,53.77
2019-02-02T15:48:30.111Z,55.73
2019-02-02T15:51:18.457Z,54.77
2019-02-02T15:54:05.996Z,61.27
2019-02-02T15:56:53.831Z,61.60
2019-02-02T15:59:42.471Z,64.00
2019-02-02T16:02:30.963Z,62.27
2019-02-02T16:05:19.164Z,60.70
2019-02-02T16:08:10.419Z,61.00
2019-02-02T16:10:58.319Z,60.10
2019-02-02T16:13:47.019Z,61.17
2019-02-02T16:16:35.867Z,67.37
2019-02-02T16:19:24.210Z,63.37
2019-02-02T16:22:12.512Z,61.27
2019-02-02T16:25:00.861Z,57.20
2019-02-02T16:27:49.438Z,61.93
2019-02-02T16:30:38.071Z,65.00
2019-02-02T16:33:26.255Z,60.83
2019-02-02T16:36:14.842Z,58.53
2019-02-02T16:39:02.964Z,61.03
2019-02-02T16:41:50.930Z,63.43
2019-02-02T16:44:39.179Z,64.10
2019-02-02T16:47:27.600Z,61.50
2019-02-02T16:50:16.398Z,60.80
2019-02-02T16:53:04.039Z,62.30
2019-02-02T16:55:52.412Z,59.67
2019-02-02T16:58:40.773Z,60.97
2019-02-02T17:01:28.822Z,66.80
2019-02-02T17:04:17.812Z,62.40
2019-02-02T17:07:06.203Z,62.30
2019-02-02T17:09:54.673Z,65.77
2019-02-02T17:12:42.507Z,65.37
2019-02-02T17:15:30.849Z,62.67
2019-02-02T17:18:19.195Z,69.17
2019-02-02T17:21:07.406Z,63.07
2019-02-02T17:23:55.947Z,66.13
2019-02-02T17:26:44.439Z,65.97
2019-02-02T17:29:32.307Z,66.73
2019-02-02T17:32:20.238Z,61.87
2019-02-02T17:35:09.677Z,64.47
2019-02-02T17:37:57.642Z,64.63
2019-02-02T17:40:45.820Z,66.50
2019-02-02T17:43:33.395Z,66.40
2019-02-02T17:46:21.899Z,67.40
2019-02-02T17:49:10.379Z,66.60
2019-02-02T17:51:58.944Z,62.33
2019-02-02T17:54:46.998Z,67.57
2019-02-02T17:57:35.027Z,70.40
2019-02-02T18:00:39.388Z,67.20
2019-02-02T18:03:27.082Z,67.50
2019-02-02T18:06:15.174Z,65.60
2019-02-02T18:09:05.332Z,66.23
2019-02-02T18:11:53.838Z,67.10
2019-02-02T18:14:42.286Z,68.40
2019-02-02T18:17:30.402Z,61.97
2019-02-02T18:20:18.944Z,68.00
2019-02-02T18:23:06.995Z,67.90
2019-02-02T18:25:55.260Z,65.40
2019-02-02T18:28:43.043Z,64.00
2019-02-02T18:31:31.367Z,64.93
2019-02-02T18:34:19.847Z,75.40
2019-02-02T18:37:08.140Z,68.00
2019-02-02T18:39:56.602Z,66.07
2019-02-02T18:42:44.539Z,70.00
2019-02-02T18:45:32.498Z,69.83
2019-02-02T18:48:20.588Z,70.80
2019-02-02T18:51:08.281Z,70.63
2019-02-02T18:53:56.688Z,70.07
2019-02-02T18:56:44.543Z,69.97
2019-02-02T18:59:32.799Z,67.87
2019-02-02T19:02:21.015Z,72.90
2019-02-02T19:05:09.844Z,72.77
2019-02-02T19:07:58.395Z,76.23
2019-02-02T19:10:46.939Z,77.57
2019-02-02T19:13:35.307Z,73.97
2019-02-02T19:16:23.675Z,77.67
2019-02-02T19:19:11.858Z,75.90
2019-02-02T19:21:59.839Z,76.40
2019-02-02T19:24:47.424Z,76.37
2019-02-02T19:27:35.930Z,77.17
2019-02-02T19:30:25.868Z,76.97
2019-02-02T19:33:13.904Z,76.57
2019-02-02T19:36:02.142Z,79.77
2019-02-02T19:38:50.199Z,81.77
2019-02-02T19:41:39.482Z,80.43
2019-02-02T19:44:31.503Z,76.73
2019-02-02T19:47:22.582Z,79.67
2019-02-02T19:50:13.399Z,81.37
2019-02-02T19:53:01.819Z,82.40
2019-02-02T19:55:49.352Z,84.70
2019-02-02T19:58:37.783Z,80.37
2019-02-02T20:01:29.303Z,79.87
2019-02-02T20:04:18.318Z,84.20
2019-02-02T20:07:12.528Z,81.63
2019-02-02T20:10:00.334Z,81.57
2019-02-02T20:12:49.095Z,80.30
2019-02-02T20:15:41.484Z,76.50
2019-02-02T20:18:29.316Z,80.37
2019-02-02T20:21:17.800Z,81.47
2019-02-02T20:24:06.595Z,77.90
2019-02-02T20:26:55.422Z,74.80
2019-02-02T20:29:51.824Z,77.53
2019-02-02T20:32:39.943Z,74.90
2019-02-02T20:35:39.842Z,76.63
2019-02-02T20:38:18.292Z,74.43
2019-02-02T20:41:06.551Z,70.37
2019-02-02T20:43:55.124Z,66.63
2019-02-02T20:46:43.188Z,71.00
2019-02-02T20:49:31.729Z,66.53
2019-02-02T20:52:22.279Z,68.00
2019-02-02T20:55:11.525Z,63.57
2019-02-02T20:57:59.975Z,66.30
2019-02-02T21:00:47.677Z,66.13
2019-02-02T21:03:35.446Z,65.33
2019-02-02T21:06:23.691Z,69.23
2019-02-02T21:09:12.398Z,61.10
2019-02-02T21:12:00.433Z,73.67
2019-02-02T21:14:48.511Z,68.07
2019-02-02T21:17:36.299Z,67.60
2019-02-02T21:20:26.111Z,69.83
2019-02-02T21:23:14.100Z,62.57
2019-02-02T21:26:02.078Z,62.03
2019-02-02T21:28:51.007Z,64.30
2019-02-02T21:31:39.447Z,61.47
2019-02-02T21:34:27.925Z,65.97
2019-02-02T21:37:15.974Z,67.27
2019-02-02T21:40:05.291Z,60.20
2019-02-02T21:42:53.658Z,66.70
2019-02-02T21:45:42.110Z,64.27
2019-02-02T21:48:30.515Z,63.10
2019-02-02T21:51:19.378Z,61.90
2019-02-02T21:54:07.769Z,60.83
2019-02-02T21:56:55.946Z,62.37
2019-02-02T21:59:44.488Z,63.97
2019-02-02T22:02:32.890Z,61.23
2019-02-02T22:05:21.590Z,61.07
2019-02-02T22:08:10.256Z,61.60
2019-02-02T22:10:58.279Z,62.47
2019-02-02T22:13:46.804Z,62.33
2019-02-02T22:16:34.867Z,62.70
2019-02-02T22:19:23.207Z,64.80
2019-02-02T22:22:11.626Z,63.50
2019-02-02T22:24:59.616Z,63.57
2019-02-02T22:27:48.259Z,62.37
2019-02-02T22:30:37.644Z,63.80
2019-02-02T22:33:25.500Z,60.23
2019-02-02T22:36:14.207Z,60.10
2019-02-02T22:39:02.759Z,59.10
2019-02-02T22:41:50.758Z,56.60
2019-02-02T22:44:38.623Z,62.13
2019-02-02T22:47:26.723Z,59.63
2019-02-02T22:50:19.095Z,64.27
2019-02-02T22:53:08.375Z,58.17
2019-02-02T22:55:56.574Z,62.60
2019-02-02T22:58:45.282Z,65.93
2019-02-02T23:01:46.867Z,60.73
2019-02-02T23:05:04.422Z,64.20
2019-02-02T23:08:44.782Z,58.00
2019-02-02T23:11:46.567Z,60.20
2019-02-02T23:14:50.947Z,64.17
2019-02-02T23:17:38.565Z,62.27
2019-02-02T23:20:26.847Z,66.07
2019-02-02T23:23:15.295Z,60.70
2019-02-02T23:26:04.306Z,62.07
2019-02-02T23:28:52.223Z,61.80
2019-02-02T23:31:41.447Z,63.87
2019-02-02T23:34:29.356Z,62.87
2019-02-02T23:37:16.925Z,61.80
2019-02-02T23:40:06.086Z,66.10
2019-02-02T23:42:54.553Z,64.57
2019-02-02T23:45:43.059Z,64.40
2019-02-02T23:48:31.331Z,63.50
2019-02-02T23:51:19.943Z,62.33
2019-02-02T23:54:08.152Z,67.90
2019-02-02T23:56:56.247Z,67.20
2019-02-02T23:59:44.578Z,70.37
